Time;durP1;ratioP1;P1;durP2;ratioP2;P2;SDS_P1;SDS_P2;PMS_P1;PMS_P2;Temp;Humidity;BMP_temperature;BMP_pressure;BME280_temperature;BME280_humidity;BME280_pressure;Samples;Min_cycle;Max_cycle;Signal;HPM_P1;HPM_P2
2021/05/18 00:03:50;;;;;;;;;;;9.00;99.90;;;;;;8362209;28;20015;-66
2021/05/18 00:08:02;;;;;;;;;;;9.00;99.90;;;;;;8362180;28;20368;-66
2021/05/18 00:12:03;;;;;;;;;;;8.90;99.90;;;;;;8361871;28;19913;-66
2021/05/18 00:16:05;;;;;;;;;;;8.80;99.90;;;;;;8361528;28;19916;-66
2021/05/18 00:20:07;;;;;;;;;;;8.80;99.90;;;;;;8360624;28;19916;-66
2021/05/18 00:24:08;;;;;;;;;;;8.70;99.90;;;;;;8361629;28;20387;-66
2021/05/18 00:28:09;;;;;;;;;;;8.70;99.90;;;;;;8361639;28;19955;-66
2021/05/18 00:32:09;;;;;;;;;;;8.70;99.90;;;;;;8361295;28;19912;-66
2021/05/18 00:36:10;;;;;;;;;;;8.70;99.90;;;;;;8361110;28;19916;-66
2021/05/18 00:40:12;;;;;;;;;;;8.60;99.90;;;;;;8361113;28;19913;-66
2021/05/18 00:44:13;;;;;;;;;;;8.60;99.90;;;;;;8360917;28;20359;-66
2021/05/18 00:48:14;;;;;;;;;;;8.80;99.90;;;;;;8360897;28;19916;-66
2021/05/18 00:52:16;;;;;;;;;;;8.80;99.90;;;;;;8360532;28;19917;-66
2021/05/18 00:56:31;;;;;;;;;;;8.80;99.90;;;;;;8360658;28;19913;-66
2021/05/18 01:00:32;;;;;;;;;;;8.80;99.90;;;;;;8360361;28;19912;-66
2021/05/18 01:04:33;;;;;;;;;;;8.80;99.90;;;;;;8342113;28;19967;-66
2021/05/18 01:08:34;;;;;;;;;;;8.90;99.90;;;;;;8360315;28;19909;-66
2021/05/18 01:12:34;;;;;;;;;;;8.90;99.90;;;;;;8359831;28;19919;-66
2021/05/18 01:16:36;;;;;;;;;;;8.90;99.90;;;;;;8359850;28;19916;-66
2021/05/18 01:20:41;;;;;;;;;;;8.70;99.90;;;;;;8359848;28;20347;-66
2021/05/18 01:24:41;;;;;;;;;;;8.70;99.90;;;;;;8359905;28;19908;-66
2021/05/18 01:28:42;;;;;;;;;;;8.70;99.90;;;;;;8360061;28;19909;-66
2021/05/18 01:32:43;;;;;;;;;;;8.70;99.90;;;;;;8359455;28;20011;-66
2021/05/18 01:36:44;;;;;;;;;;;8.80;99.90;;;;;;8359943;28;19935;-66
2021/05/18 01:45:11;;;;;;;;;;;8.80;99.90;;;;;;8360032;28;19981;-66
2021/05/18 01:49:12;;;;;;;;;;;8.80;99.90;;;;;;8359851;28;19944;-66
2021/05/18 01:53:14;;;;;;;;;;;8.80;99.90;;;;;;8359436;28;20377;-66
2021/05/18 01:57:21;;;;;;;;;;;8.70;99.90;;;;;;8359181;28;19912;-66
2021/05/18 02:01:21;;;;;;;;;;;8.60;99.90;;;;;;8358911;28;20673;-66
2021/05/18 02:05:23;;;;;;;;;;;8.70;99.90;;;;;;8358639;28;19917;-66
2021/05/18 02:09:23;;;;;;;;;;;8.70;99.90;;;;;;8341318;28;19909;-66
2021/05/18 02:13:24;;;;;;;;;;;8.70;99.90;;;;;;8341015;28;19974;-66
2021/05/18 02:17:44;;;;;;;;;;;8.80;99.90;;;;;;8358743;28;19948;-66
2021/05/18 02:21:59;;;;;;;;;;;8.80;99.90;;;;;;8358925;28;20507;-66
2021/05/18 02:26:00;;;;;;;;;;;8.80;99.90;;;;;;8358514;28;19909;-66
2021/05/18 02:30:00;;;;;;;;;;;8.80;99.90;;;;;;8358781;28;19962;-66
2021/05/18 02:34:01;;;;;;;;;;;8.90;99.90;;;;;;8358485;28;19909;-66
2021/05/18 02:38:01;;;;;;;;;;;8.90;99.90;;;;;;8340498;28;19958;-66
2021/05/18 02:42:02;;;;;;;;;;;8.90;99.90;;;;;;8358280;28;19916;-66
2021/05/18 02:46:08;;;;;;;;;;;9.00;99.90;;;;;;8363110;28;19913;-66
2021/05/18 02:50:09;;;;;;;;;;;8.90;99.90;;;;;;8364728;28;19944;-66
2021/05/18 02:54:11;;;;;;;;;;;8.90;99.90;;;;;;8364066;28;20286;-65
2021/05/18 02:58:12;;;;;;;;;;;8.80;99.90;;;;;;8363507;28;19960;-65
2021/05/18 03:02:13;;;;;;;;;;;8.70;99.90;;;;;;8364049;28;19909;-64
2021/05/18 03:06:13;;;;;;;;;;;8.60;99.90;;;;;;8363994;28;20131;-65
2021/05/18 03:10:15;;;;;;;;;;;8.50;99.90;;;;;;8346103;28;19913;-64
2021/05/18 03:14:15;;;;;;;;;;;8.60;99.90;;;;;;8363595;28;19970;-65
2021/05/18 03:18:16;;;;;;;;;;;8.50;99.90;;;;;;8363533;28;19955;-65
2021/05/18 03:22:16;;;;;;;;;;;8.50;99.90;;;;;;8363466;28;19974;-64
2021/05/18 03:26:17;;;;;;;;;;;8.50;99.90;;;;;;8363461;28;19909;-65
2021/05/18 03:30:42;;;;;;;;;;;8.50;99.90;;;;;;8363516;28;20507;-64
2021/05/18 03:34:43;;;;;;;;;;;8.50;99.90;;;;;;8363131;28;19971;-65
2021/05/18 03:38:46;;;;;;;;;;;8.40;99.90;;;;;;8363383;28;19966;-65
2021/05/18 03:42:52;;;;;;;;;;;8.40;99.90;;;;;;8345012;28;19992;-65
2021/05/18 04:16:53;;;;;;;;;;;8.90;99.90;;;;;;8362854;28;20348;-65
2021/05/18 04:21:10;;;;;;;;;;;9.00;99.90;;;;;;8362235;28;19913;-65
2021/05/18 04:51:04;;;;;;;;;;;9.00;99.90;;;;;;8360631;28;19943;-64
2021/05/18 05:07:50;;;;;;;;;;;9.30;99.90;;;;;;8315098;28;19924;-66
2021/05/18 05:16:10;;;;;;;;;;;9.20;99.90;;;;;;8327257;28;19920;-66
2021/05/18 05:20:10;;;;;;;;;;;9.20;99.90;;;;;;8330083;28;20371;-65
2021/05/18 05:24:13;;;;;;;;;;;9.20;99.90;;;;;;8352870;28;20005;-65
2021/05/18 05:28:13;;;;;;;;;;;9.30;99.90;;;;;;8356543;28;20000;-65
2021/05/18 05:32:14;;;;;;;;;;;9.30;99.90;;;;;;8342987;28;20597;-65
2021/05/18 05:36:14;;;;;;;;;;;9.30;99.90;;;;;;8352327;28;19943;-65
2021/05/18 05:40:15;;;;;;;;;;;9.60;99.90;;;;;;8342432;28;19916;-65
2021/05/18 05:44:15;;;;;;;;;;;10.10;99.90;;;;;;8333673;28;19920;-66
2021/05/18 05:48:18;;;;;;;;;;;10.30;99.90;;;;;;8331794;28;19964;-66
2021/05/18 05:52:20;;;;;;;;;;;10.50;99.90;;;;;;8325944;28;19913;-65
2021/05/18 05:56:22;;;;;;;;;;;10.20;99.90;;;;;;8331070;28;19909;-64
2021/05/18 06:00:22;;;;;;;;;;;10.10;99.90;;;;;;8338574;28;20155;-64
2021/05/18 06:04:23;;;;;;;;;;;10.10;99.90;;;;;;8339152;28;20446;-64
2021/05/18 06:08:24;;;;;;;;;;;10.40;99.90;;;;;;8340684;28;19915;-64
2021/05/18 06:42:42;;;;;;;;;;;10.60;99.90;;;;;;8363875;28;20391;-64
2021/05/18 06:46:56;;;;;;;;;;;10.40;99.90;;;;;;8364399;28;19917;-65
2021/05/18 06:50:56;;;;;;;;;;;10.50;99.90;;;;;;8361724;28;19913;-65
2021/05/18 06:54:57;;;;;;;;;;;10.30;99.90;;;;;;8362545;28;19970;-64
2021/05/18 07:03:02;;;;;;;;;;;10.00;99.90;;;;;;8362613;28;19909;-65
2021/05/18 07:07:12;;;;;;;;;;;10.10;99.90;;;;;;8331397;28;19932;-65
2021/05/18 07:11:12;;;;;;;;;;;9.90;99.90;;;;;;8338945;28;19913;-64
2021/05/18 07:15:13;;;;;;;;;;;9.70;99.90;;;;;;8346938;28;20413;-64
2021/05/18 07:19:14;;;;;;;;;;;9.60;99.90;;;;;;8358923;28;19950;-65
2021/05/18 07:23:17;;;;;;;;;;;9.70;99.90;;;;;;8338388;28;19917;-64
2021/05/18 07:27:18;;;;;;;;;;;9.80;99.90;;;;;;8339771;28;19921;-64
2021/05/18 07:31:18;;;;;;;;;;;9.90;99.90;;;;;;8337714;28;19975;-65
2021/05/18 07:35:19;;;;;;;;;;;10.00;99.90;;;;;;8337242;28;19920;-65
2021/05/18 07:39:19;;;;;;;;;;;10.20;99.90;;;;;;8334135;28;20287;-65
2021/05/18 07:43:20;;;;;;;;;;;10.60;99.90;;;;;;8332816;28;19921;-66
2021/05/18 07:47:22;;;;;;;;;;;11.00;99.90;;;;;;8332981;28;19913;-64
2021/05/18 07:51:47;;;;;;;;;;;10.90;99.90;;;;;;8344293;28;19917;-63
2021/05/18 08:05:17;;;;;;;;;;;10.20;99.90;;;;;;8352083;28;19917;-64
2021/05/18 08:08:47;;;;;;;;;;;10.20;99.90;;;;;;8324452;28;19932;-65
2021/05/18 08:12:47;;;;;;;;;;;10.20;99.90;;;;;;8327351;28;19909;-65
2021/05/18 10:27:13;;;;;;;;;;;13.20;99.90;;;;;;8357799;28;19913;-66
2021/05/18 10:35:41;;;;;;;;;;;14.10;99.90;;;;;;8355351;28;19917;-66
2021/05/18 10:39:42;;;;;;;;;;;14.00;99.90;;;;;;8337019;28;19916;-67
2021/05/18 10:43:44;;;;;;;;;;;14.60;99.90;;;;;;8356145;28;19915;-66
2021/05/18 10:47:45;;;;;;;;;;;15.70;99.90;;;;;;8356333;28;19913;-71
2021/05/18 10:51:48;;;;;;;;;;;16.10;99.90;;;;;;8357908;28;19912;-71
2021/05/18 10:56:08;;;;;;;;;;;15.90;99.90;;;;;;8358286;28;19909;-70
2021/05/18 11:00:09;;;;;;;;;;;15.00;99.90;;;;;;8329473;28;19917;-70
2021/05/18 11:04:10;;;;;;;;;;;14.10;99.90;;;;;;8344033;28;19920;-66
2021/05/18 11:08:16;;;;;;;;;;;13.40;99.90;;;;;;8359635;28;19960;-66
2021/05/18 11:12:18;;;;;;;;;;;12.60;99.90;;;;;;8355605;28;19923;-66
2021/05/18 11:16:18;;;;;;;;;;;11.90;99.90;;;;;;8355522;28;19921;-66
2021/05/18 11:24:25;;;;;;;;;;;11.00;99.90;;;;;;8353008;28;19923;-67
2021/05/18 11:28:25;;;;;;;;;;;11.40;99.90;;;;;;8357053;28;20363;-67
2021/05/18 11:32:26;;;;;;;;;;;12.60;99.90;;;;;;8342057;28;20031;-66
2021/05/18 11:36:31;;;;;;;;;;;12.90;99.90;;;;;;8355885;28;19917;-67
2021/05/18 11:41:01;;;;;;;;;;;15.10;99.90;;;;;;8362027;28;19921;-66
2021/05/18 11:45:09;;;;;;;;;;;17.60;99.90;;;;;;8331695;28;19913;-66
2021/05/18 11:49:13;;;;;;;;;;;19.50;99.90;;;;;;8360908;28;19913;-66
2021/05/18 11:53:26;;;;;;;;;;;16.60;99.90;;;;;;8359301;28;19962;-65
2021/05/18 11:57:27;;;;;;;;;;;16.80;99.90;;;;;;8361717;28;20529;-66
2021/05/18 12:01:28;;;;;;;;;;;18.20;99.90;;;;;;8361838;28;19921;-65
2021/05/18 12:05:28;;;;;;;;;;;16.80;99.90;;;;;;8361092;28;19924;-65
2021/05/18 12:09:30;;;;;;;;;;;15.30;99.90;;;;;;8360536;28;19962;-66
2021/05/18 12:13:30;;;;;;;;;;;14.10;99.90;;;;;;8359553;28;19986;-65
2021/05/18 12:17:32;;;;;;;;;;;14.00;99.90;;;;;;8356998;28;19913;-66
2021/05/18 12:21:33;;;;;;;;;;;14.70;99.90;;;;;;8360291;28;19912;-65
2021/05/18 12:25:35;;;;;;;;;;;15.40;99.90;;;;;;8358059;28;20302;-66
2021/05/18 12:29:50;;;;;;;;;;;15.70;99.90;;;;;;8358963;28;19928;-65
2021/05/18 12:33:50;;;;;;;;;;;13.90;99.90;;;;;;8358025;28;19920;-65
2021/05/18 12:37:54;;;;;;;;;;;13.70;99.90;;;;;;8345653;28;20298;-65
2021/05/18 12:42:00;;;;;;;;;;;15.20;99.90;;;;;;8329019;28;20482;-66
2021/05/18 12:46:07;;;;;;;;;;;15.60;99.90;;;;;;8336814;28;20438;-66
2021/05/18 12:50:09;;;;;;;;;;;14.90;99.90;;;;;;8347448;28;20371;-64
2021/05/18 12:54:09;;;;;;;;;;;12.50;99.90;;;;;;8342803;28;19913;-66
2021/05/18 12:58:10;;;;;;;;;;;12.00;99.90;;;;;;8356701;28;19952;-67
2021/05/18 13:02:26;;;;;;;;;;;13.30;99.90;;;;;;8337008;28;19963;-67
2021/05/18 13:06:26;;;;;;;;;;;17.00;99.90;;;;;;8356485;28;20027;-66
2021/05/18 13:10:37;;;;;;;;;;;16.60;99.90;;;;;;8359478;28;19916;-67
2021/05/18 13:14:53;;;;;;;;;;;19.30;99.90;;;;;;8359751;28;19909;-66
2021/05/18 13:19:03;;;;;;;;;;;20.30;99.90;;;;;;8358788;28;20403;-66
2021/05/18 13:23:05;;;;;;;;;;;16.20;99.90;;;;;;8348801;28;20364;-66
2021/05/18 13:27:09;;;;;;;;;;;13.60;99.90;;;;;;8358936;28;19921;-67
2021/05/18 13:31:09;;;;;;;;;;;12.60;99.90;;;;;;8358988;28;20007;-67
2021/05/18 13:35:10;;;;;;;;;;;12.20;99.90;;;;;;8352967;28;19935;-67
2021/05/18 13:39:12;;;;;;;;;;;12.10;99.90;;;;;;8358670;28;20007;-67
2021/05/18 13:43:12;;;;;;;;;;;12.50;99.90;;;;;;8358586;28;19908;-67
2021/05/18 13:47:13;;;;;;;;;;;14.50;99.90;;;;;;8341147;28;19924;-68
2021/05/18 13:51:15;;;;;;;;;;;20.00;99.90;;;;;;8359159;28;19908;-67
2021/05/18 13:55:16;;;;;;;;;;;26.20;87.20;;;;;;8359082;28;19912;-68
2021/05/18 13:59:16;;;;;;;;;;;29.70;54.90;;;;;;8357904;28;19925;-68
2021/05/18 14:03:17;;;;;;;;;;;31.30;46.50;;;;;;8358436;28;19912;-67
2021/05/18 14:07:39;;;;;;;;;;;28.50;48.50;;;;;;8358056;28;20343;-67
2021/05/18 14:11:40;;;;;;;;;;;26.10;49.00;;;;;;8357931;28;19916;-67
2021/05/18 14:15:42;;;;;;;;;;;23.60;57.40;;;;;;8357744;28;19909;-67
2021/05/18 14:19:42;;;;;;;;;;;24.60;56.90;;;;;;8358340;28;19974;-67
2021/05/18 14:27:52;;;;;;;;;;;23.90;56.50;;;;;;8355241;28;19913;-67
2021/05/18 14:31:54;;;;;;;;;;;22.90;58.30;;;;;;8354352;28;19912;-66
2021/05/18 14:35:54;;;;;;;;;;;19.90;65.90;;;;;;8336460;28;19967;-66
2021/05/18 14:48:26;;;;;;;;;;;12.30;99.90;;;;;;8363161;28;19912;-66
2021/05/18 14:56:46;;;;;;;;;;;11.80;99.90;;;;;;8360793;28;19936;-67
2021/05/18 15:00:46;;;;;;;;;;;11.50;99.90;;;;;;8363264;28;19955;-66
2021/05/18 15:04:47;;;;;;;;;;;11.00;99.90;;;;;;8363561;28;19916;-67
2021/05/18 15:08:47;;;;;;;;;;;11.20;99.90;;;;;;8361755;28;20455;-67
2021/05/18 15:12:47;;;;;;;;;;;12.20;99.90;;;;;;8332373;28;19909;-67
2021/05/18 15:16:48;;;;;;;;;;;14.40;99.90;;;;;;8361179;28;19913;-67
2021/05/18 15:20:48;;;;;;;;;;;14.20;99.90;;;;;;8363208;28;20013;-67
2021/05/18 15:24:49;;;;;;;;;;;14.90;99.90;;;;;;8347853;28;19923;-67
2021/05/18 15:28:50;;;;;;;;;;;14.70;99.90;;;;;;8345244;28;19914;-67
2021/05/18 15:32:50;;;;;;;;;;;14.10;99.90;;;;;;8343340;28;19967;-67
2021/05/18 15:36:51;;;;;;;;;;;13.80;99.90;;;;;;8359349;28;19991;-67
2021/05/18 15:40:51;;;;;;;;;;;14.50;99.90;;;;;;8362248;28;20410;-67
2021/05/18 15:44:52;;;;;;;;;;;15.60;99.90;;;;;;8350282;28;19965;-67
2021/05/18 15:48:52;;;;;;;;;;;16.00;99.90;;;;;;8329306;28;19909;-67
2021/05/18 15:52:53;;;;;;;;;;;16.80;99.90;;;;;;8313449;28;19909;-67
2021/05/18 15:56:53;;;;;;;;;;;16.30;99.90;;;;;;8331116;28;19917;-66
2021/05/18 16:00:54;;;;;;;;;;;16.80;99.90;;;;;;8331468;28;19921;-67
2021/05/18 16:04:55;;;;;;;;;;;18.10;99.90;;;;;;8336442;28;19925;-67
2021/05/18 16:12:56;;;;;;;;;;;20.90;90.20;;;;;;8340361;28;19920;-67
2021/05/18 16:16:56;;;;;;;;;;;22.30;79.40;;;;;;8325255;28;19921;-65
2021/05/18 16:20:57;;;;;;;;;;;23.70;70.50;;;;;;8346429;28;19928;-67
2021/05/18 16:24:57;;;;;;;;;;;23.30;66.10;;;;;;8356272;28;19913;-67
2021/05/18 16:28:59;;;;;;;;;;;22.80;64.70;;;;;;8348687;28;19918;-66
2021/05/18 16:33:01;;;;;;;;;;;20.90;70.20;;;;;;8326922;28;19920;-66
2021/05/18 16:37:02;;;;;;;;;;;20.90;73.70;;;;;;8346732;28;19912;-65
2021/05/18 16:41:04;;;;;;;;;;;18.70;78.30;;;;;;8339278;28;19916;-65
2021/05/18 16:45:05;;;;;;;;;;;17.00;91.90;;;;;;8335412;28;19913;-64
2021/05/18 16:49:06;;;;;;;;;;;16.50;90.40;;;;;;8341543;28;19924;-65
2021/05/18 16:53:07;;;;;;;;;;;17.70;88.40;;;;;;8346465;28;19924;-65
2021/05/18 16:57:08;;;;;;;;;;;19.70;82.50;;;;;;8353229;28;20404;-65
2021/05/18 17:01:08;;;;;;;;;;;;;;;;;;8335165;28;19939;-65
2021/05/18 17:05:09;;;;;;;;;;;18.10;99.90;;;;;;8347127;28;19921;-64
2021/05/18 17:09:10;;;;;;;;;;;16.00;91.30;;;;;;8342410;28;19913;-65
2021/05/18 17:13:11;;;;;;;;;;;14.90;94.90;;;;;;8334660;28;19948;-65
2021/05/18 17:17:14;;;;;;;;;;;14.40;98.20;;;;;;8323792;28;19913;-66
2021/05/18 17:21:14;;;;;;;;;;;14.40;99.90;;;;;;8348506;28;20296;-65
2021/05/18 17:25:15;;;;;;;;;;;14.40;99.90;;;;;;8343255;28;19925;-65
2021/05/18 17:29:16;;;;;;;;;;;14.20;99.90;;;;;;8340290;28;19923;-64
2021/05/18 17:33:17;;;;;;;;;;;14.10;99.90;;;;;;8341436;28;19913;-67
2021/05/18 17:37:17;;;;;;;;;;;13.90;99.90;;;;;;8336341;28;19917;-67
2021/05/18 17:41:22;;;;;;;;;;;13.70;99.90;;;;;;8354575;28;19923;-67
2021/05/18 17:45:22;;;;;;;;;;;13.90;99.90;;;;;;8336801;28;19912;-66
2021/05/18 17:49:23;;;;;;;;;;;13.90;99.90;;;;;;8354640;28;20363;-67
2021/05/18 17:53:23;;;;;;;;;;;14.10;99.90;;;;;;8353777;28;19928;-66
2021/05/18 17:57:24;;;;;;;;;;;14.00;99.90;;;;;;8355352;28;20367;-67
2021/05/18 18:01:24;;;;;;;;;;;13.60;99.90;;;;;;8354635;28;19920;-65
2021/05/18 18:05:25;;;;;;;;;;;13.50;99.90;;;;;;8341356;28;19929;-66
2021/05/18 18:09:26;;;;;;;;;;;13.60;99.90;;;;;;8339063;28;19920;-65
2021/05/18 18:13:27;;;;;;;;;;;13.60;99.90;;;;;;8338951;28;19955;-65
2021/05/18 18:17:28;;;;;;;;;;;13.40;99.90;;;;;;8337000;28;19913;-64
2021/05/18 18:21:28;;;;;;;;;;;12.90;99.90;;;;;;8352157;28;19950;-64
2021/05/18 18:25:29;;;;;;;;;;;12.10;99.90;;;;;;8346754;28;19913;-64
2021/05/18 18:29:29;;;;;;;;;;;11.80;99.90;;;;;;8338504;28;19913;-64
2021/05/18 18:33:30;;;;;;;;;;;11.60;99.90;;;;;;8353603;28;19959;-65
2021/05/18 18:37:36;;;;;;;;;;;11.40;99.90;;;;;;8314782;28;19917;-64
2021/05/18 18:41:36;;;;;;;;;;;11.40;99.90;;;;;;8331220;28;20367;-65
2021/05/18 18:45:37;;;;;;;;;;;11.10;99.90;;;;;;8350178;28;19945;-64
2021/05/18 18:49:38;;;;;;;;;;;11.00;99.90;;;;;;8344822;28;19917;-65
2021/05/18 18:53:43;;;;;;;;;;;10.80;99.90;;;;;;8336056;28;19913;-65
2021/05/18 18:57:44;;;;;;;;;;;10.60;99.90;;;;;;8344372;28;20031;-65
2021/05/18 19:01:51;;;;;;;;;;;10.30;99.90;;;;;;8323111;28;19943;-65
2021/05/18 19:05:59;;;;;;;;;;;10.20;99.90;;;;;;8337833;28;19928;-64
2021/05/18 19:10:14;;;;;;;;;;;10.00;99.90;;;;;;8346686;28;20016;-64
2021/05/18 19:14:17;;;;;;;;;;;9.90;99.90;;;;;;8326617;28;19914;-64
2021/05/18 19:18:18;;;;;;;;;;;9.70;99.90;;;;;;8350668;28;19921;-65
2021/05/18 19:22:18;;;;;;;;;;;9.70;99.90;;;;;;8329292;28;19920;-65
2021/05/18 19:26:19;;;;;;;;;;;9.50;99.90;;;;;;8356622;28;19917;-65
2021/05/18 19:30:20;;;;;;;;;;;9.20;99.90;;;;;;8341762;28;19920;-64
2021/05/18 19:34:26;;;;;;;;;;;9.10;99.90;;;;;;8332484;28;19920;-64
2021/05/18 19:51:24;;;;;;;;;;;8.90;99.90;;;;;;8352078;28;19920;-65
2021/05/18 19:55:32;;;;;;;;;;;9.10;99.90;;;;;;8345407;28;20372;-65
2021/05/18 20:20:56;;;;;;;;;;;8.40;99.90;;;;;;8361674;28;20490;-65
2021/05/18 20:24:56;;;;;;;;;;;8.30;99.90;;;;;;8341773;28;20367;-64
2021/05/18 20:28:57;;;;;;;;;;;8.30;99.90;;;;;;8360952;28;19909;-65
2021/05/18 20:32:57;;;;;;;;;;;8.10;99.90;;;;;;8360158;28;19919;-65
2021/05/18 20:41:18;;;;;;;;;;;8.30;99.90;;;;;;8359099;28;20452;-66
2021/05/18 20:45:19;;;;;;;;;;;8.40;99.90;;;;;;8360439;28;19909;-65
2021/05/18 20:49:20;;;;;;;;;;;8.60;99.90;;;;;;8361009;28;19913;-65
2021/05/18 20:53:20;;;;;;;;;;;8.60;99.90;;;;;;8359976;28;19908;-66
2021/05/18 20:57:21;;;;;;;;;;;8.30;99.90;;;;;;8337610;28;20302;-65
2021/05/18 21:01:22;;;;;;;;;;;8.00;99.90;;;;;;8327840;28;19913;-65
2021/05/18 21:05:23;;;;;;;;;;;8.00;99.90;;;;;;8351088;28;19948;-65
2021/05/18 21:17:43;;;;;;;;;;;8.00;99.90;;;;;;8360210;28;19956;-65
2021/05/18 21:21:44;;;;;;;;;;;8.00;99.90;;;;;;8342210;28;19920;-65
2021/05/18 21:25:44;;;;;;;;;;;8.10;99.90;;;;;;8359862;28;19916;-65
2021/05/18 21:29:45;;;;;;;;;;;8.10;99.90;;;;;;8359915;28;19916;-65
2021/05/18 21:33:46;;;;;;;;;;;8.20;99.90;;;;;;8358981;28;20379;-65
2021/05/18 21:37:46;;;;;;;;;;;8.10;99.90;;;;;;8359786;28;19999;-65
2021/05/18 21:41:53;;;;;;;;;;;8.20;99.90;;;;;;8359702;28;20338;-65
2021/05/18 21:45:54;;;;;;;;;;;8.20;99.90;;;;;;8341530;28;19941;-65
2021/05/18 21:49:54;;;;;;;;;;;8.50;99.90;;;;;;8358931;28;19943;-65
2021/05/18 21:53:55;;;;;;;;;;;8.30;99.90;;;;;;8359128;28;20431;-65
2021/05/18 21:57:56;;;;;;;;;;;7.90;99.90;;;;;;8359210;28;19913;-66
2021/05/18 22:01:57;;;;;;;;;;;8.00;99.90;;;;;;8359240;28;19913;-65
2021/05/18 22:05:58;;;;;;;;;;;8.00;99.90;;;;;;8359051;28;20456;-65
2021/05/18 22:10:14;;;;;;;;;;;7.90;99.90;;;;;;8359250;28;20360;-65
2021/05/18 22:27:12;;;;;;;;;;;7.90;99.90;;;;;;8359516;28;20019;-65
2021/05/18 22:31:14;;;;;;;;;;;7.80;99.90;;;;;;8358758;28;21288;-65
2021/05/18 22:35:16;;;;;;;;;;;8.10;99.90;;;;;;8357750;28;20375;-65
2021/05/18 22:39:16;;;;;;;;;;;8.10;99.90;;;;;;8358621;28;19916;-65
2021/05/18 22:43:16;;;;;;;;;;;7.90;99.90;;;;;;8358421;28;19917;-66
2021/05/18 22:47:17;;;;;;;;;;;7.70;99.90;;;;;;8358289;28;19912;-66
2021/05/18 22:51:17;;;;;;;;;;;7.80;99.90;;;;;;8358318;28;20023;-66
2021/05/18 22:55:18;;;;;;;;;;;8.00;99.90;;;;;;8357961;28;20364;-65
2021/05/18 22:59:19;;;;;;;;;;;8.00;99.90;;;;;;8358131;28;19913;-66
2021/05/18 23:03:19;;;;;;;;;;;8.00;99.90;;;;;;8363005;28;19908;-66
2021/05/18 23:07:21;;;;;;;;;;;7.90;99.90;;;;;;8364269;28;19945;-66
2021/05/18 23:11:23;;;;;;;;;;;7.80;99.90;;;;;;8364072;28;19909;-66
2021/05/18 23:15:24;;;;;;;;;;;7.80;99.90;;;;;;8363893;28;20011;-66
2021/05/18 23:19:24;;;;;;;;;;;8.00;99.90;;;;;;8364008;28;20465;-66
2021/05/18 23:23:25;;;;;;;;;;;7.90;99.90;;;;;;8363829;28;19951;-65
2021/05/18 23:27:26;;;;;;;;;;;8.20;99.90;;;;;;8345967;28;19924;-65
2021/05/18 23:31:26;;;;;;;;;;;8.10;99.90;;;;;;8363804;28;19923;-65
2021/05/18 23:35:27;;;;;;;;;;;8.10;99.90;;;;;;8362976;28;20577;-66
2021/05/18 23:39:27;;;;;;;;;;;8.20;99.90;;;;;;8363574;28;19912;-66
2021/05/18 23:43:28;;;;;;;;;;;8.20;99.90;;;;;;8363231;28;19992;-65
2021/05/18 23:47:28;;;;;;;;;;;8.20;99.90;;;;;;8345579;28;19909;-66
2021/05/18 23:51:29;;;;;;;;;;;8.40;99.90;;;;;;8363565;28;19912;-65
2021/05/18 23:55:29;;;;;;;;;;;8.50;99.90;;;;;;8363016;28;20539;-65
2021/05/18 23:59:30;;;;;;;;;;;8.40;99.90;;;;;;8362685;28;19916;-65
